Time;durP1;ratioP1;P1;durP2;ratioP2;P2;SDS_P1;SDS_P2;PMS_P1;PMS_P2;Temp;Humidity;BMP_temperature;BMP_pressure;BME280_temperature;BME280_humidity;BME280_pressure;Samples;Min_cycle;Max_cycle;Signal;HPM_P1;HPM_P2
2021/05/21 00:01:45;;;;;;;5.90;1.58;;;12.60;82.60;;;;;;5140536;27;20050;-57
2021/05/21 00:04:14;;;;;;;4.13;1.63;;;12.60;82.80;;;;;;5148765;27;20042;-56
2021/05/21 00:06:45;;;;;;;6.03;1.95;;;12.60;82.70;;;;;;5149065;27;20086;-57
2021/05/21 00:09:11;;;;;;;3.00;1.48;;;12.50;83.20;;;;;;5148340;27;20042;-57
2021/05/21 00:11:38;;;;;;;4.63;1.80;;;12.60;83.00;;;;;;5148294;27;20042;-57
2021/05/21 00:14:04;;;;;;;2.63;1.40;;;12.60;82.70;;;;;;5148885;27;20046;-55
2021/05/21 00:16:31;;;;;;;7.40;1.73;;;12.60;82.90;;;;;;5130192;27;20892;-57
2021/05/21 00:19:00;;;;;;;1.67;1.17;;;12.60;83.20;;;;;;5130039;27;20051;-57
2021/05/21 00:21:26;;;;;;;4.15;1.40;;;12.70;82.80;;;;;;5148292;27;20050;-57
2021/05/21 00:23:55;;;;;;;2.78;1.30;;;12.70;83.00;;;;;;5142371;27;20070;-56
2021/05/21 00:26:24;;;;;;;3.10;1.33;;;12.70;82.80;;;;;;5130424;27;20070;-57
2021/05/21 00:28:50;;;;;;;4.07;2.05;;;12.70;83.00;;;;;;5149059;27;20050;-57
2021/05/21 00:31:16;;;;;;;6.35;1.58;;;12.70;83.90;;;;;;5148875;27;20046;-57
2021/05/21 00:33:43;;;;;;;3.75;1.40;;;12.70;83.40;;;;;;5126957;27;20043;-57
2021/05/21 00:36:09;;;;;;;2.60;1.23;;;12.70;83.40;;;;;;5148343;27;20772;-57
2021/05/21 00:38:36;;;;;;;3.03;1.30;;;12.70;83.70;;;;;;5147453;27;20058;-57
2021/05/21 00:41:07;;;;;;;3.67;1.35;;;12.70;83.70;;;;;;5148346;27;20046;-55
2021/05/21 00:43:33;;;;;;;3.57;1.57;;;12.70;83.80;;;;;;5150356;27;20039;-57
2021/05/21 00:46:02;;;;;;;5.90;1.60;;;12.70;83.60;;;;;;5151560;27;20312;-55
2021/05/21 00:48:31;;;;;;;4.72;1.35;;;12.80;83.70;;;;;;5152990;27;20047;-56
2021/05/21 00:50:57;;;;;;;4.63;1.52;;;12.80;83.50;;;;;;5151740;27;20062;-55
2021/05/21 00:53:29;;;;;;;3.97;1.30;;;12.80;83.60;;;;;;5129516;27;20043;-58
2021/05/21 00:55:59;;;;;;;4.07;1.27;;;12.90;83.60;;;;;;5150972;27;20050;-57
2021/05/21 00:58:26;;;;;;;5.55;1.30;;;12.90;83.30;;;;;;5153280;27;20051;-56
2021/05/21 01:00:57;;;;;;;4.30;1.48;;;12.90;83.60;;;;;;5153338;27;20440;-57
2021/05/21 01:03:27;;;;;;;5.85;1.42;;;12.90;83.90;;;;;;5153497;27;20053;-56
2021/05/21 01:05:53;;;;;;;2.55;1.25;;;12.90;83.90;;;;;;5159751;27;20480;-56
2021/05/21 01:08:20;;;;;;;2.95;1.15;;;12.90;83.90;;;;;;5153384;27;20055;-56
2021/05/21 01:10:47;;;;;;;4.38;1.33;;;12.90;84.40;;;;;;5152324;27;20825;-56
2021/05/21 01:13:13;;;;;;;2.42;1.33;;;12.90;84.50;;;;;;5151646;27;20071;-56
2021/05/21 01:15:41;;;;;;;4.30;1.35;;;12.90;84.00;;;;;;5151433;27;20051;-55
2021/05/21 01:18:10;;;;;;;3.15;1.50;;;12.90;84.90;;;;;;5150952;27;20043;-57
2021/05/21 01:20:42;;;;;;;5.80;1.48;;;12.90;84.80;;;;;;5151907;27;20108;-57
2021/05/21 01:23:11;;;;;;;2.65;1.27;;;12.90;85.10;;;;;;5151353;27;20054;-57
2021/05/21 01:25:37;;;;;;;4.38;1.20;;;12.90;84.90;;;;;;5151148;27;20086;-57
2021/05/21 01:28:05;;;;;;;4.57;1.50;;;12.90;85.70;;;;;;5151267;27;20047;-57
2021/05/21 01:30:32;;;;;;;3.20;1.27;;;13.00;85.30;;;;;;5151160;27;20043;-57
2021/05/21 01:33:11;;;;;;;3.22;1.42;;;13.00;84.40;;;;;;5151908;27;20047;-58
2021/05/21 01:35:39;;;;;;;4.70;1.63;;;13.00;84.80;;;;;;5149060;27;20073;-56
2021/05/21 01:38:06;;;;;;;6.00;1.60;;;13.00;84.90;;;;;;5131427;27;20050;-56
2021/05/21 01:40:37;;;;;;;4.30;1.25;;;13.00;84.40;;;;;;5150535;27;20047;-56
2021/05/21 01:43:07;;;;;;;3.92;1.38;;;13.00;84.90;;;;;;5151100;27;20119;-56
2021/05/21 01:45:41;;;;;;;4.88;1.60;;;12.90;85.50;;;;;;5150633;27;20073;-57
2021/05/21 01:48:11;;;;;;;8.57;1.85;;;13.00;84.90;;;;;;5150366;27;20102;-57
2021/05/21 01:50:39;;;;;;;4.07;1.30;;;13.00;85.20;;;;;;5150329;27;20088;-56
2021/05/21 01:53:12;;;;;;;4.30;2.22;;;12.90;85.60;;;;;;5150512;27;20513;-56
2021/05/21 01:55:51;;;;;;;5.28;1.73;;;13.00;85.70;;;;;;5149019;27;20042;-57
2021/05/21 01:58:19;;;;;;;5.50;1.73;;;12.90;86.10;;;;;;5150091;27;20054;-57
2021/05/21 02:00:46;;;;;;;3.67;1.60;;;12.90;85.90;;;;;;5150959;27;20451;-57
2021/05/21 02:03:14;;;;;;;3.22;1.60;;;13.00;85.90;;;;;;5150482;27;20494;-56
2021/05/21 02:05:41;;;;;;;5.95;1.77;;;13.00;85.50;;;;;;5150540;27;20451;-57
2021/05/21 02:08:08;;;;;;;6.15;1.83;;;13.00;85.60;;;;;;5154095;27;20039;-57
2021/05/21 02:10:34;;;;;;;4.50;2.22;;;12.90;89.90;;;;;;5150918;27;20051;-59
2021/05/21 02:13:00;;;;;;;3.58;1.63;;;12.30;92.00;;;;;;5151679;27;20055;-58
2021/05/21 02:15:28;;;;;;;4.03;2.25;;;12.00;92.60;;;;;;5151568;27;20145;-58
2021/05/21 02:17:57;;;;;;;5.28;2.30;;;11.80;94.40;;;;;;5150498;27;20039;-58
2021/05/21 02:20:26;;;;;;;6.32;2.45;;;11.70;95.50;;;;;;5150169;27;20409;-52
2021/05/21 02:22:52;;;;;;;5.18;2.42;;;11.60;95.30;;;;;;5150507;27;20098;-51
2021/05/21 02:25:18;;;;;;;7.15;2.45;;;11.60;95.40;;;;;;5132345;27;20069;-50
2021/05/21 02:27:45;;;;;;;7.45;2.58;;;11.50;95.70;;;;;;5150374;27;20054;-51
2021/05/21 02:30:11;;;;;;;6.10;2.40;;;11.50;95.60;;;;;;5149732;27;20054;-49
2021/05/21 02:32:41;;;;;;;5.05;2.00;;;11.50;96.50;;;;;;5153394;27;20095;-49
2021/05/21 02:35:09;;;;;;;6.68;2.05;;;11.60;95.90;;;;;;5149828;27;20047;-52
2021/05/21 02:37:39;;;;;;;5.25;2.75;;;11.60;95.70;;;;;;5149923;27;20042;-55
2021/05/21 02:40:06;;;;;;;6.50;2.67;;;11.60;96.00;;;;;;5147461;27;20121;-51
2021/05/21 02:42:33;;;;;;;7.57;2.70;;;11.60;95.90;;;;;;5149815;27;20440;-51
2021/05/21 02:44:59;;;;;;;12.63;3.45;;;11.70;95.30;;;;;;5152863;27;20129;-50
2021/05/21 02:47:28;;;;;;;13.88;3.05;;;11.80;93.60;;;;;;5149304;27;20050;-47
2021/05/21 02:49:57;;;;;;;16.67;3.50;;;11.80;93.40;;;;;;5152545;27;20127;-51
2021/05/21 02:52:24;;;;;;;17.38;3.35;;;11.80;92.80;;;;;;5149934;27;20083;-49
2021/05/21 02:54:50;;;;;;;17.80;3.83;;;11.80;93.40;;;;;;5149832;27;20066;-53
2021/05/21 02:57:16;;;;;;;17.88;4.40;;;11.70;93.50;;;;;;5149459;27;20474;-49
2021/05/21 02:59:43;;;;;;;12.63;3.60;;;11.60;94.10;;;;;;5148922;27;20163;-51
2021/05/21 03:02:09;;;;;;;16.13;3.65;;;11.50;94.00;;;;;;5130621;27;20054;-48
2021/05/21 03:04:35;;;;;;;18.70;4.05;;;11.50;94.20;;;;;;5150119;27;20042;-48
2021/05/21 03:07:02;;;;;;;16.17;3.90;;;11.50;94.70;;;;;;5149251;27;20505;-48
2021/05/21 03:09:28;;;;;;;16.88;3.38;;;11.50;95.20;;;;;;5149002;27;20482;-48
2021/05/21 03:11:57;;;;;;;15.40;2.88;;;11.40;95.20;;;;;;5149152;27;20123;-53
2021/05/21 03:14:23;;;;;;;17.20;3.95;;;11.40;96.10;;;;;;5149298;27;20043;-54
2021/05/21 03:16:50;;;;;;;15.68;4.13;;;11.30;95.70;;;;;;5150019;27;20150;-50
2021/05/21 03:19:16;;;;;;;16.45;4.55;;;11.30;96.40;;;;;;5148903;27;20141;-49
2021/05/21 03:21:43;;;;;;;13.35;3.38;;;11.30;96.10;;;;;;5149066;27;20515;-50
2021/05/21 03:24:12;;;;;;;19.38;3.90;;;11.30;96.10;;;;;;5148895;27;20046;-48
2021/05/21 03:26:43;;;;;;;14.32;3.30;;;11.20;95.90;;;;;;5156311;27;20039;-54
2021/05/21 03:29:10;;;;;;;15.27;3.05;;;11.20;95.80;;;;;;5149095;27;20042;-50
2021/05/21 03:31:39;;;;;;;23.73;4.20;;;11.20;95.50;;;;;;5148476;27;20042;-49
2021/05/21 03:34:08;;;;;;;16.27;4.05;;;11.10;95.50;;;;;;5130485;27;20062;-48
2021/05/21 03:36:35;;;;;;;16.75;4.13;;;11.10;95.30;;;;;;5148871;27;20053;-49
2021/05/21 03:39:03;;;;;;;19.15;3.83;;;11.10;94.80;;;;;;5148704;27;20038;-48
2021/05/21 03:41:31;;;;;;;15.88;3.25;;;11.10;94.30;;;;;;5148706;27;20444;-49
2021/05/21 03:44:01;;;;;;;14.93;3.83;;;11.10;93.80;;;;;;5148973;27;20034;-49
2021/05/21 03:46:27;;;;;;;16.05;3.33;;;11.10;94.40;;;;;;5129611;27;20046;-48
2021/05/21 03:48:54;;;;;;;22.60;3.70;;;11.10;94.00;;;;;;5148511;27;20050;-48
2021/05/21 03:51:21;;;;;;;16.70;3.90;;;11.10;93.60;;;;;;5148357;27;20058;-49
2021/05/21 03:53:50;;;;;;;19.65;3.65;;;11.10;93.80;;;;;;5155161;27;20039;-50
2021/05/21 03:56:16;;;;;;;19.60;3.83;;;11.10;93.00;;;;;;5116548;27;20451;-47
2021/05/21 03:58:43;;;;;;;15.27;3.45;;;11.10;92.80;;;;;;5148684;27;20065;-49
2021/05/21 04:01:11;;;;;;;23.67;4.70;;;11.10;93.30;;;;;;5148735;27;20060;-48
2021/05/21 04:03:40;;;;;;;17.13;3.22;;;11.00;93.30;;;;;;5155556;27;20043;-47
2021/05/21 04:06:08;;;;;;;15.07;3.60;;;11.00;92.80;;;;;;5149614;27;20042;-49
2021/05/21 04:08:37;;;;;;;15.38;3.08;;;11.00;93.60;;;;;;5148461;27;20074;-52
2021/05/21 04:11:04;;;;;;;16.77;3.50;;;11.00;93.00;;;;;;5149167;27;20088;-48
2021/05/21 04:13:34;;;;;;;17.20;3.70;;;11.00;93.40;;;;;;5148785;27;20108;-49
2021/05/21 04:16:00;;;;;;;26.17;4.20;;;10.90;93.60;;;;;;5148613;27;20143;-48
2021/05/21 04:18:27;;;;;;;18.95;3.72;;;10.90;94.20;;;;;;5150353;27;20429;-48
2021/05/21 04:20:56;;;;;;;23.48;4.05;;;10.80;94.50;;;;;;5152413;27;20485;-49
2021/05/21 04:23:23;;;;;;;23.05;3.92;;;10.70;94.70;;;;;;5152575;27;20138;-48
2021/05/21 04:25:51;;;;;;;12.10;3.63;;;10.70;95.20;;;;;;5152040;27;20054;-48
2021/05/21 04:28:17;;;;;;;15.52;3.60;;;10.60;95.40;;;;;;5152263;27;20439;-49
2021/05/21 04:30:52;;;;;;;17.25;4.13;;;10.60;95.40;;;;;;5151519;27;20572;-48
2021/05/21 04:33:23;;;;;;;14.13;3.63;;;10.50;95.80;;;;;;5152673;27;20051;-49
2021/05/21 04:35:49;;;;;;;17.17;4.00;;;10.50;96.00;;;;;;5152321;27;20053;-55
2021/05/21 04:38:18;;;;;;;17.58;3.55;;;10.40;96.20;;;;;;5151814;27;20043;-51
2021/05/21 04:40:45;;;;;;;20.60;4.15;;;10.40;96.30;;;;;;5151736;27;20046;-50
2021/05/21 04:43:11;;;;;;;18.25;4.15;;;10.30;96.30;;;;;;5152858;27;20035;-46
2021/05/21 04:45:39;;;;;;;19.65;4.35;;;10.40;96.70;;;;;;5151285;27;20047;-48
2021/05/21 04:48:06;;;;;;;17.30;4.00;;;10.40;96.80;;;;;;5145202;27;20042;-50
2021/05/21 04:50:34;;;;;;;20.38;4.40;;;10.50;96.70;;;;;;5147847;27;20585;-46
2021/05/21 04:53:03;;;;;;;16.40;4.18;;;10.60;97.10;;;;;;5147706;27;20042;-65
2021/05/21 04:55:29;;;;;;;21.25;4.38;;;10.60;97.00;;;;;;5149751;27;20085;-67
2021/05/21 04:57:56;;;;;;;18.05;4.63;;;10.60;96.70;;;;;;5148115;27;20049;-65
2021/05/21 05:00:22;;;;;;;18.02;4.75;;;10.70;96.80;;;;;;5141761;27;20043;-58
2021/05/21 05:02:50;;;;;;;20.27;4.00;;;10.80;96.80;;;;;;5151622;27;20442;-56
2021/05/21 05:05:16;;;;;;;15.98;4.30;;;10.90;96.60;;;;;;5128824;27;20062;-56
2021/05/21 05:07:45;;;;;;;16.35;4.80;;;11.20;96.10;;;;;;5153461;27;20098;-55
2021/05/21 05:10:11;;;;;;;16.00;4.07;;;11.40;95.80;;;;;;5149824;27;20750;-56
2021/05/21 05:12:39;;;;;;;16.63;4.30;;;11.60;95.40;;;;;;5150350;27;20094;-58
2021/05/21 05:15:07;;;;;;;17.85;3.95;;;11.70;95.00;;;;;;5143149;27;20391;-56
2021/05/21 05:17:35;;;;;;;21.80;4.72;;;11.80;94.60;;;;;;5144024;27;20415;-56
2021/05/21 05:20:02;;;;;;;18.70;3.70;;;11.90;94.60;;;;;;5149773;27;20887;-57
2021/05/21 05:22:29;;;;;;;14.88;3.70;;;12.10;94.30;;;;;;5149681;27;20457;-56
2021/05/21 05:24:56;;;;;;;18.55;4.30;;;12.10;94.20;;;;;;5149954;27;20046;-58
2021/05/21 05:27:23;;;;;;;19.05;5.00;;;12.20;93.70;;;;;;5132252;27;20074;-55
2021/05/21 05:29:49;;;;;;;18.35;3.78;;;12.30;93.70;;;;;;5149195;27;20149;-56
2021/05/21 05:32:16;;;;;;;21.70;3.95;;;12.30;93.20;;;;;;5128645;27;20653;-56
2021/05/21 05:34:45;;;;;;;16.45;3.85;;;12.30;93.10;;;;;;5151092;27;20526;-55
2021/05/21 05:37:14;;;;;;;15.95;3.97;;;12.50;93.40;;;;;;5150872;27;20042;-55
2021/05/21 05:39:40;;;;;;;19.85;4.20;;;12.60;92.90;;;;;;5152353;27;20126;-55
2021/05/21 05:42:06;;;;;;;25.92;4.95;;;12.70;92.80;;;;;;5149690;27;20047;-56
2021/05/21 05:44:35;;;;;;;17.20;4.13;;;12.80;92.60;;;;;;5151057;27;20060;-56
2021/05/21 05:47:02;;;;;;;17.50;3.78;;;12.90;92.70;;;;;;5148845;27;20508;-56
2021/05/21 05:49:31;;;;;;;20.23;4.50;;;13.10;92.20;;;;;;5148693;27;20047;-57
2021/05/21 05:52:00;;;;;;;23.38;3.92;;;12.90;91.00;;;;;;5147049;27;20043;-56
2021/05/21 05:54:29;;;;;;;22.50;4.45;;;13.00;91.50;;;;;;5146157;27;20055;-56
2021/05/21 05:56:55;;;;;;;18.83;3.97;;;13.10;91.40;;;;;;5149382;27;20076;-55
2021/05/21 05:59:24;;;;;;;20.60;4.78;;;13.10;91.00;;;;;;5149010;27;20043;-56
2021/05/21 06:01:52;;;;;;;23.40;4.70;;;13.10;91.00;;;;;;5132785;27;20049;-57
2021/05/21 06:04:18;;;;;;;67.10;45.58;;;12.90;91.40;;;;;;5131686;27;20051;-56
2021/05/21 06:06:47;;;;;;;53.30;32.85;;;12.80;91.60;;;;;;5139845;27;20050;-57
2021/05/21 06:09:13;;;;;;;26.35;10.55;;;12.50;91.80;;;;;;5150338;27;20443;-55
2021/05/21 06:11:42;;;;;;;23.30;5.80;;;12.30;92.00;;;;;;5141287;27;20046;-56
2021/05/21 06:14:12;;;;;;;19.08;5.30;;;12.20;92.50;;;;;;5150254;27;20767;-56
2021/05/21 06:16:38;;;;;;;19.27;5.05;;;12.30;92.50;;;;;;5150208;27;20471;-57
2021/05/21 06:19:08;;;;;;;21.52;5.63;;;12.70;92.20;;;;;;5131595;27;20054;-56
2021/05/21 06:21:34;;;;;;;19.05;5.00;;;13.20;91.40;;;;;;5150409;27;20045;-57
2021/05/21 06:24:00;;;;;;;22.77;4.80;;;13.50;91.50;;;;;;5150476;27;20081;-58
2021/05/21 06:26:36;;;;;;;26.40;13.57;;;13.70;90.30;;;;;;5146350;27;20508;-57
2021/05/21 06:29:02;;;;;;;19.70;5.65;;;13.60;89.30;;;;;;5148750;27;20203;-56
2021/05/21 06:31:29;;;;;;;15.98;6.07;;;13.80;87.80;;;;;;5148373;27;20042;-57
2021/05/21 06:33:55;;;;;;;20.08;4.88;;;13.90;86.80;;;;;;5149942;27;20073;-57
2021/05/21 06:36:25;;;;;;;20.20;5.40;;;13.90;84.90;;;;;;5146498;27;20042;-57
2021/05/21 06:38:53;;;;;;;17.70;4.85;;;13.90;84.90;;;;;;5146793;27;20042;-57
2021/05/21 06:41:19;;;;;;;20.30;5.10;;;14.00;85.10;;;;;;5150767;27;20092;-58
2021/05/21 06:43:46;;;;;;;16.50;4.82;;;14.00;83.20;;;;;;5147313;27;20816;-55
2021/05/21 06:46:15;;;;;;;15.15;3.40;;;14.10;82.30;;;;;;5140569;27;20086;-53
2021/05/21 06:48:44;;;;;;;24.08;7.57;;;14.10;81.70;;;;;;5146401;27;20079;-54
2021/05/21 06:51:10;;;;;;;36.28;22.92;;;14.30;81.10;;;;;;5144092;27;20054;-57
2021/05/21 06:53:39;;;;;;;19.45;8.52;;;14.50;81.90;;;;;;5147545;27;20098;-55
2021/05/21 06:56:06;;;;;;;18.13;6.30;;;14.60;81.40;;;;;;5151841;27;20044;-56
2021/05/21 06:58:32;;;;;;;16.80;3.78;;;14.50;80.40;;;;;;5144627;27;20046;-53
2021/05/21 07:00:58;;;;;;;17.20;5.20;;;14.90;82.10;;;;;;5146378;27;20054;-52
2021/05/21 07:03:28;;;;;;;16.58;4.57;;;14.70;82.00;;;;;;5142701;27;20083;-54
2021/05/21 07:05:57;;;;;;;19.38;4.30;;;14.40;81.40;;;;;;5143734;27;20091;-52
2021/05/21 07:08:28;;;;;;;15.85;4.18;;;14.50;82.50;;;;;;5130557;27;20038;-51
2021/05/21 07:10:58;;;;;;;19.20;5.65;;;14.50;81.30;;;;;;5144887;27;20073;-52
2021/05/21 07:13:26;;;;;;;27.08;14.15;;;14.50;81.80;;;;;;5144028;27;20094;-51
2021/05/21 07:15:53;;;;;;;21.20;6.53;;;14.40;81.90;;;;;;5144324;27;20047;-53
2021/05/21 07:18:19;;;;;;;20.17;4.43;;;14.50;84.20;;;;;;5147181;27;20498;-51
2021/05/21 07:20:46;;;;;;;14.75;3.83;;;14.50;82.30;;;;;;5145801;27;20487;-55
2021/05/21 07:23:13;;;;;;;18.20;3.55;;;14.40;81.30;;;;;;5143540;27;20145;-53
2021/05/21 07:25:39;;;;;;;15.52;3.97;;;14.60;80.30;;;;;;5147838;27;20121;-53
2021/05/21 07:28:09;;;;;;;13.38;3.70;;;14.40;81.40;;;;;;5147995;27;20038;-52
2021/05/21 07:30:35;;;;;;;14.30;5.93;;;14.10;79.40;;;;;;5147704;27;20130;-53
2021/05/21 07:33:04;;;;;;;16.75;4.72;;;14.50;79.90;;;;;;5145697;27;20741;-51
2021/05/21 07:35:36;;;;;;;20.05;4.70;;;14.80;77.30;;;;;;5147396;27;20049;-50
2021/05/21 07:38:10;;;;;;;16.20;4.72;;;15.00;75.80;;;;;;5145520;27;20046;-54
2021/05/21 07:40:39;;;;;;;17.77;5.80;;;14.80;77.30;;;;;;5156577;27;20474;-52
2021/05/21 07:43:17;;;;;;;17.63;4.43;;;15.00;75.10;;;;;;5138290;27;20047;-54
2021/05/21 07:45:47;;;;;;;17.50;4.15;;;15.30;73.70;;;;;;5124310;27;20543;-53
2021/05/21 07:48:17;;;;;;;12.82;3.30;;;15.20;74.60;;;;;;5146820;27;20482;-53
2021/05/21 07:50:43;;;;;;;14.45;3.08;;;14.70;71.50;;;;;;5115683;27;20081;-55
2021/05/21 07:53:11;;;;;;;14.75;4.65;;;14.40;74.10;;;;;;5099837;28;20403;-53
2021/05/21 07:55:38;;;;;;;19.77;6.22;;;14.30;75.00;;;;;;5099448;28;20039;-53
2021/05/21 07:58:06;;;;;;;14.48;4.10;;;14.20;74.40;;;;;;5106538;27;20043;-51
2021/05/21 08:00:33;;;;;;;16.95;4.82;;;14.10;75.10;;;;;;5102297;28;20088;-54
2021/05/21 08:02:59;;;;;;;15.00;3.63;;;14.00;76.50;;;;;;5106724;28;20051;-52
2021/05/21 08:05:28;;;;;;;17.98;3.92;;;13.90;74.90;;;;;;5108772;28;20047;-50
2021/05/21 08:07:54;;;;;;;13.60;3.55;;;13.80;76.00;;;;;;5106023;28;20836;-50
2021/05/21 08:10:21;;;;;;;16.23;4.30;;;13.70;76.00;;;;;;5107486;27;20048;-55
2021/05/21 08:12:49;;;;;;;12.05;3.05;;;13.70;76.00;;;;;;5107918;28;20047;-56
2021/05/21 08:15:17;;;;;;;13.55;3.78;;;13.60;75.70;;;;;;5113236;27;20048;-49
2021/05/21 08:17:43;;;;;;;17.52;3.78;;;13.70;74.50;;;;;;5100707;28;20056;-53
2021/05/21 08:20:12;;;;;;;15.82;3.65;;;13.70;74.80;;;;;;5105177;28;20043;-52
2021/05/21 08:22:38;;;;;;;14.77;3.30;;;13.80;75.90;;;;;;5104453;28;20048;-51
2021/05/21 08:25:05;;;;;;;22.38;8.88;;;13.90;75.20;;;;;;5121343;28;20066;-52
2021/05/21 08:27:32;;;;;;;22.70;10.98;;;14.10;74.70;;;;;;5113120;27;20818;-51
2021/05/21 08:30:00;;;;;;;14.32;4.30;;;14.20;72.60;;;;;;5107811;28;20055;-50
2021/05/21 08:32:29;;;;;;;12.80;3.95;;;14.30;71.40;;;;;;5107572;28;20047;-52
2021/05/21 08:34:58;;;;;;;15.03;4.67;;;14.50;71.20;;;;;;5106951;28;20142;-50
2021/05/21 08:37:25;;;;;;;13.27;3.50;;;14.70;70.50;;;;;;5110743;27;20307;-55
2021/05/21 08:39:55;;;;;;;11.93;3.35;;;15.00;68.80;;;;;;5103200;28;20820;-54
2021/05/21 08:42:24;;;;;;;13.00;3.55;;;15.30;68.10;;;;;;5107421;28;20043;-55
2021/05/21 08:44:53;;;;;;;14.25;3.58;;;15.90;67.60;;;;;;5111874;27;20047;-56
2021/05/21 08:47:19;;;;;;;14.65;3.65;;;16.50;65.90;;;;;;5107534;28;20103;-54
2021/05/21 08:49:46;;;;;;;11.32;2.78;;;16.10;63.60;;;;;;5106993;27;20401;-55
2021/05/21 08:52:13;;;;;;;12.50;2.78;;;16.20;64.00;;;;;;5135087;27;20107;-57
2021/05/21 08:54:41;;;;;;;15.73;4.00;;;16.10;63.80;;;;;;5148251;27;20804;-52
2021/05/21 08:57:13;;;;;;;13.32;3.80;;;16.10;62.40;;;;;;5156561;27;20478;-54
2021/05/21 08:59:40;;;;;;;14.13;3.30;;;16.10;62.70;;;;;;5148941;27;20081;-55
2021/05/21 09:02:16;;;;;;;10.75;3.08;;;16.00;61.60;;;;;;5148098;27;20431;-56
2021/05/21 09:04:47;;;;;;;13.50;3.10;;;16.10;64.50;;;;;;5131606;27;20065;-54
2021/05/21 09:07:27;;;;;;;19.45;11.13;;;16.00;62.70;;;;;;5149247;27;20458;-53
2021/05/21 09:09:56;;;;;;;18.60;8.55;;;15.60;62.00;;;;;;5148228;27;20050;-55
2021/05/21 09:12:23;;;;;;;16.50;6.00;;;15.30;63.70;;;;;;5151230;27;20134;-56
2021/05/21 09:15:14;;;;;;;11.18;3.33;;;15.10;64.30;;;;;;5145128;27;20426;-55
2021/05/21 09:17:55;;;;;;;13.75;3.20;;;15.00;65.10;;;;;;5152129;27;20129;-56
2021/05/21 09:20:32;;;;;;;11.65;2.78;;;15.10;64.80;;;;;;5154126;27;20471;-56
2021/05/21 09:23:08;;;;;;;14.23;3.03;;;15.10;66.10;;;;;;5151306;27;20042;-54
2021/05/21 09:25:48;;;;;;;13.88;3.72;;;15.10;65.20;;;;;;5151005;27;20057;-55
2021/05/21 09:28:38;;;;;;;9.98;3.75;;;15.20;67.20;;;;;;5152801;27;20111;-54
2021/05/21 09:31:08;;;;;;;13.50;2.70;;;15.30;66.20;;;;;;5151082;27;20053;-56
2021/05/21 09:33:42;;;;;;;13.70;2.72;;;15.40;64.60;;;;;;5151381;27;20053;-57
2021/05/21 09:36:09;;;;;;;13.82;5.00;;;15.40;65.80;;;;;;5132896;27;20042;-55
2021/05/21 09:38:45;;;;;;;22.30;9.35;;;15.50;66.90;;;;;;5151340;27;20131;-57
2021/05/21 09:41:11;;;;;;;14.52;5.70;;;15.30;67.20;;;;;;5136907;27;20107;-56
2021/05/21 09:43:41;;;;;;;14.02;3.85;;;15.20;64.50;;;;;;5141631;27;20554;-56
2021/05/21 09:46:09;;;;;;;11.70;3.97;;;15.20;66.30;;;;;;5145534;27;20150;-57
2021/05/21 09:48:38;;;;;;;10.68;3.22;;;15.40;67.80;;;;;;5153816;27;20053;-56
2021/05/21 09:51:09;;;;;;;11.07;2.60;;;16.10;67.20;;;;;;5150924;27;20089;-57
2021/05/21 09:53:37;;;;;;;7.93;2.58;;;16.30;64.50;;;;;;5150839;27;20125;-57
2021/05/21 09:56:19;;;;;;;9.68;2.40;;;16.30;64.00;;;;;;5150788;27;20142;-57
2021/05/21 09:58:46;;;;;;;13.05;3.22;;;16.30;63.50;;;;;;5150905;27;20098;-57
2021/05/21 10:01:18;;;;;;;15.20;2.85;;;15.90;65.00;;;;;;5152135;27;20043;-55
2021/05/21 10:03:56;;;;;;;16.27;3.83;;;14.30;76.50;;;;;;5132067;27;20053;-53
2021/05/21 10:06:28;;;;;;;9.07;2.35;;;12.60;89.00;;;;;;5150221;27;20501;-47
2021/05/21 10:08:56;;;;;;;;;;;11.60;93.10;;;;;;5150860;27;20046;-49
2021/05/21 10:11:23;;;;;;;9.27;2.28;;;11.50;94.20;;;;;;5151144;27;20022;-45
2021/05/21 10:13:50;;;;;;;11.68;2.35;;;12.00;93.10;;;;;;5151279;27;20402;-46
2021/05/21 10:16:21;;;;;;;12.40;2.90;;;12.20;93.40;;;;;;5150105;27;20053;-48
2021/05/21 10:18:50;;;;;;;9.50;2.50;;;12.50;93.20;;;;;;5151047;27;20051;-48
2021/05/21 10:21:17;;;;;;;9.70;3.38;;;12.40;93.00;;;;;;5150770;27;20050;-46
2021/05/21 10:24:18;;;;;;;11.63;2.88;;;12.30;92.00;;;;;;5149627;27;20047;-50
2021/05/21 10:26:51;;;;;;;10.68;3.03;;;12.30;92.10;;;;;;5116898;27;20075;-50
2021/05/21 10:29:26;;;;;;;12.57;4.05;;;12.10;91.80;;;;;;5127005;27;20461;-50
2021/05/21 10:32:07;;;;;;;13.25;2.97;;;11.80;94.30;;;;;;5126111;27;20063;-50
2021/05/21 10:34:48;;;;;;;12.43;2.58;;;11.50;94.20;;;;;;5127927;27;20085;-51
2021/05/21 10:37:36;;;;;;;12.60;3.15;;;11.50;94.40;;;;;;5125494;27;20054;-52
2021/05/21 10:40:24;;;;;;;13.18;2.72;;;11.80;95.20;;;;;;5126103;27;20245;-54
2021/05/21 10:43:27;;;;;;;12.30;3.17;;;12.00;94.70;;;;;;5126086;27;20043;-50
2021/05/21 10:46:15;;;;;;;11.65;3.40;;;12.20;95.00;;;;;;5109622;27;20076;-53
2021/05/21 10:48:54;;;;;;;11.32;3.53;;;12.50;94.70;;;;;;5125811;27;20043;-52
2021/05/21 10:51:21;;;;;;;17.40;3.97;;;12.90;93.60;;;;;;5126181;27;20055;-53
2021/05/21 10:54:08;;;;;;;15.52;3.88;;;13.40;94.00;;;;;;5126682;27;20624;-54
2021/05/21 10:56:47;;;;;;;14.50;3.05;;;13.40;91.70;;;;;;5126077;27;20554;-54
2021/05/21 10:59:13;;;;;;;13.98;3.95;;;13.40;90.00;;;;;;5126426;27;20043;-54
2021/05/21 11:01:46;;;;;;;10.88;3.72;;;13.10;89.60;;;;;;5123641;27;20043;-50
2021/05/21 11:04:19;;;;;;;9.02;3.10;;;12.90;90.50;;;;;;5146898;27;20119;-55
2021/05/21 11:06:51;;;;;;;13.45;3.67;;;12.50;92.40;;;;;;5146945;27;20050;-52
2021/05/21 11:09:22;;;;;;;11.20;3.35;;;12.50;92.40;;;;;;5149761;27;20383;-53
2021/05/21 11:12:14;;;;;;;13.73;3.75;;;12.50;92.40;;;;;;5147252;27;20583;-54
2021/05/21 11:14:45;;;;;;;10.77;2.90;;;12.60;91.60;;;;;;5143721;27;20672;-53
2021/05/21 11:17:26;;;;;;;16.25;4.13;;;13.10;90.70;;;;;;5149045;27;20422;-55
2021/05/21 11:19:56;;;;;;;13.63;4.28;;;13.60;90.50;;;;;;5136010;27;20849;-56
2021/05/21 11:22:38;;;;;;;9.45;3.25;;;14.40;89.00;;;;;;5130627;27;20054;-55
2021/05/21 11:25:08;;;;;;;10.40;3.42;;;14.60;85.90;;;;;;5147284;27;20162;-56
2021/05/21 11:27:36;;;;;;;12.55;4.07;;;14.30;82.10;;;;;;5149362;27;20046;-54
2021/05/21 11:30:14;;;;;;;9.68;2.92;;;14.30;85.20;;;;;;5148770;27;20077;-55
2021/05/21 11:32:41;;;;;;;9.40;3.42;;;14.20;82.50;;;;;;5149693;27;20051;-56
2021/05/21 11:35:09;;;;;;;8.18;2.75;;;14.20;83.00;;;;;;5130345;27;20077;-56
2021/05/21 11:37:35;;;;;;;12.57;3.20;;;14.30;81.60;;;;;;5148554;27;20086;-54
2021/05/21 11:40:05;;;;;;;10.02;2.80;;;14.30;81.20;;;;;;5149158;27;20047;-53
2021/05/21 11:42:32;;;;;;;9.00;2.60;;;14.50;80.50;;;;;;5148035;27;20074;-56
2021/05/21 11:45:01;;;;;;;13.07;5.50;;;14.70;79.10;;;;;;5148421;27;20053;-60
2021/05/21 11:47:35;;;;;;;8.48;3.17;;;14.80;78.20;;;;;;5147823;27;20113;-56
2021/05/21 11:50:05;;;;;;;9.68;4.40;;;15.30;75.20;;;;;;5152320;27;20116;-56
2021/05/21 11:52:31;;;;;;;13.10;3.78;;;15.20;71.70;;;;;;5148394;27;20081;-58
2021/05/21 11:55:00;;;;;;;13.75;3.60;;;15.00;71.90;;;;;;5154718;27;20486;-57
2021/05/21 11:57:26;;;;;;;15.80;3.92;;;15.10;72.80;;;;;;5147029;27;20055;-57
2021/05/21 11:59:56;;;;;;;8.55;2.70;;;15.00;73.30;;;;;;5148098;27;20042;-56
2021/05/21 12:02:27;;;;;;;15.77;3.15;;;15.00;75.60;;;;;;5146092;27;20130;-56
2021/05/21 12:04:53;;;;;;;8.15;2.50;;;15.00;74.00;;;;;;5147626;27;20043;-60
2021/05/21 12:07:27;;;;;;;12.63;2.70;;;15.10;72.60;;;;;;5148217;27;20078;-56
2021/05/21 12:10:03;;;;;;;14.30;3.45;;;15.50;71.90;;;;;;5147574;27;20058;-52
2021/05/21 12:12:31;;;;;;;9.85;2.78;;;16.20;70.40;;;;;;5107674;27;20522;-60
2021/05/21 12:15:17;;;;;;;12.23;2.45;;;16.40;68.80;;;;;;5124311;28;20047;-59
2021/05/21 12:17:46;;;;;;;11.20;2.70;;;16.10;69.10;;;;;;5126006;28;20051;-59
2021/05/21 12:20:13;;;;;;;9.35;2.65;;;15.70;68.60;;;;;;5127553;28;20169;-58
2021/05/21 12:23:08;;;;;;;8.93;2.67;;;15.40;73.40;;;;;;5127634;28;20062;-58
2021/05/21 12:25:37;;;;;;;8.07;2.40;;;14.80;75.60;;;;;;5123308;28;20043;-60
2021/05/21 12:28:05;;;;;;;10.50;2.38;;;15.30;77.10;;;;;;5125556;28;20140;-59
2021/05/21 12:30:31;;;;;;;11.88;2.50;;;15.70;78.70;;;;;;5126958;27;20058;-61
2021/05/21 12:32:59;;;;;;;8.32;2.70;;;16.10;76.80;;;;;;5131960;27;20039;-59
2021/05/21 12:35:37;;;;;;;8.80;2.40;;;16.40;74.00;;;;;;5133894;27;20513;-60
2021/05/21 12:38:04;;;;;;;11.35;2.65;;;16.80;77.10;;;;;;5130940;27;20050;-60
2021/05/21 12:40:30;;;;;;;10.57;2.72;;;17.20;76.70;;;;;;5130271;27;20047;-59
2021/05/21 12:42:57;;;;;;;6.60;2.13;;;17.50;72.80;;;;;;5130898;27;20047;-60
2021/05/21 12:45:23;;;;;;;9.32;2.25;;;18.00;74.40;;;;;;5132478;27;20047;-59
2021/05/21 12:47:51;;;;;;;8.70;2.00;;;17.70;72.30;;;;;;5134190;27;20046;-58
2021/05/21 12:50:19;;;;;;;9.65;4.28;;;17.10;71.50;;;;;;5135583;27;20050;-58
2021/05/21 12:53:04;;;;;;;12.82;3.97;;;16.80;72.90;;;;;;5129378;27;20129;-58